createdAt,value
2019-05-26T00:00:11.548Z,54.80
2019-05-26T00:02:40.919Z,54.80
2019-05-26T00:05:10.506Z,54.80
2019-05-26T00:07:39.881Z,54.90
2019-05-26T00:10:10.629Z,54.80
2019-05-26T00:12:40.095Z,55.00
2019-05-26T00:15:10.547Z,54.90
2019-05-26T00:17:39.914Z,55.00
2019-05-26T00:20:10.289Z,55.00
2019-05-26T00:22:40.036Z,55.00
2019-05-26T00:25:09.841Z,55.20
2019-05-26T00:27:39.205Z,55.20
2019-05-26T00:30:09.715Z,55.10
2019-05-26T00:32:39.320Z,55.20
2019-05-26T00:35:09.495Z,55.20
2019-05-26T00:37:49.353Z,55.30
2019-05-26T00:40:13.694Z,55.30
2019-05-26T00:42:43.066Z,55.40
2019-05-26T00:45:13.180Z,55.60
2019-05-26T00:47:42.618Z,55.60
2019-05-26T00:50:12.994Z,55.80
2019-05-26T00:52:42.450Z,55.80
2019-05-26T00:55:12.437Z,55.80
2019-05-26T00:57:41.894Z,55.90
2019-05-26T01:00:12.424Z,56.00
2019-05-26T01:02:41.933Z,56.00
2019-05-26T01:05:11.848Z,56.10
2019-05-26T01:07:41.721Z,56.20
2019-05-26T01:10:11.523Z,56.40
2019-05-26T01:12:40.901Z,56.50
2019-05-26T01:15:10.992Z,56.50
2019-05-26T01:17:40.366Z,56.70
2019-05-26T01:20:10.743Z,56.80
2019-05-26T01:22:40.101Z,57.00
2019-05-26T01:25:10.583Z,57.20
2019-05-26T01:27:39.947Z,57.30
2019-05-26T01:30:12.495Z,57.40
2019-05-26T01:32:41.862Z,57.50
2019-05-26T01:35:12.769Z,57.60
2019-05-26T01:37:42.781Z,57.70
2019-05-26T01:40:12.225Z,57.80
2019-05-26T01:42:41.605Z,57.90
2019-05-26T01:45:11.509Z,58.00
2019-05-26T01:47:40.880Z,58.20
2019-05-26T01:50:11.091Z,58.30
2019-05-26T01:52:40.654Z,58.50
2019-05-26T01:55:10.025Z,58.50
2019-05-26T01:57:39.399Z,58.70
2019-05-26T02:00:11.838Z,58.70
2019-05-26T02:02:41.204Z,58.90
2019-05-26T02:05:10.693Z,59.00
2019-05-26T02:07:40.126Z,59.20
2019-05-26T02:10:10.243Z,59.20
2019-05-26T02:12:39.615Z,59.40
2019-05-26T02:15:11.184Z,59.50
2019-05-26T02:17:40.851Z,59.70
2019-05-26T02:20:11.858Z,59.60
2019-05-26T02:22:41.241Z,59.70
2019-05-26T02:25:11.817Z,59.80
2019-05-26T02:27:41.196Z,60.00
2019-05-26T02:30:12.400Z,60.00
2019-05-26T02:32:41.775Z,60.10
2019-05-26T02:35:12.160Z,60.10
2019-05-26T02:37:42.740Z,60.30
2019-05-26T02:40:16.115Z,60.40
2019-05-26T02:42:45.467Z,60.40
2019-05-26T02:45:20.118Z,60.40
2019-05-26T02:47:49.450Z,60.60
2019-05-26T02:50:20.029Z,60.70
2019-05-26T02:52:49.417Z,60.70
2019-05-26T02:55:19.488Z,60.70
2019-05-26T02:57:48.863Z,60.90
2019-05-26T03:00:25.724Z,60.90
2019-05-26T03:02:55.254Z,61.10
2019-05-26T03:05:24.672Z,59.80
2019-05-26T03:07:54.727Z,61.20
2019-05-26T03:10:24.122Z,61.30
2019-05-26T03:12:56.010Z,61.30
2019-05-26T03:15:25.475Z,61.40
2019-05-26T03:17:58.620Z,61.30
2019-05-26T03:20:27.980Z,61.60
2019-05-26T03:23:00.436Z,61.40
2019-05-26T03:25:33.650Z,61.60
2019-05-26T03:28:03.021Z,61.80
2019-05-26T03:30:32.408Z,61.80
2019-05-26T03:33:01.782Z,61.80
2019-05-26T03:35:31.178Z,61.60
2019-05-26T03:38:00.543Z,61.80
2019-05-26T03:40:30.281Z,61.80
2019-05-26T03:42:59.651Z,61.90
2019-05-26T03:46:04.308Z,61.80
2019-05-26T03:48:33.661Z,61.80
2019-05-26T03:51:03.053Z,61.40
2019-05-26T03:53:32.430Z,61.50
2019-05-26T03:56:01.805Z,61.50
2019-05-26T03:58:31.171Z,61.40
2019-05-26T04:01:00.821Z,61.30
2019-05-26T04:03:30.194Z,61.60
2019-05-26T04:05:59.561Z,61.50
2019-05-26T04:08:29.380Z,61.20
2019-05-26T04:10:59.011Z,61.30
2019-05-26T04:13:28.372Z,61.40
2019-05-26T04:15:57.806Z,61.30
2019-05-26T04:18:27.461Z,61.40
2019-05-26T04:20:56.837Z,61.30
2019-05-26T04:23:26.236Z,61.10
2019-05-26T04:25:55.599Z,61.20
2019-05-26T04:28:24.974Z,61.10
2019-05-26T04:30:54.637Z,61.00
2019-05-26T04:33:24.003Z,60.90
2019-05-26T04:35:53.367Z,60.90
2019-05-26T04:38:22.754Z,60.80
2019-05-26T04:40:52.126Z,60.60
2019-05-26T04:43:23.048Z,60.50
2019-05-26T04:45:52.440Z,60.30
2019-05-26T04:48:21.807Z,60.20
2019-05-26T04:50:51.191Z,60.20
2019-05-26T04:53:20.847Z,60.10
2019-05-26T04:55:50.242Z,60.00
2019-05-26T04:58:19.620Z,59.80
2019-05-26T05:00:49.010Z,59.80
2019-05-26T05:03:18.377Z,59.70
2019-05-26T05:05:48.008Z,59.70
2019-05-26T05:08:17.403Z,59.40
2019-05-26T05:10:46.777Z,59.30
2019-05-26T05:13:16.170Z,59.30
2019-05-26T05:15:45.563Z,59.20
2019-05-26T05:18:14.933Z,59.20
2019-05-26T05:20:44.303Z,59.20
2019-05-26T05:23:13.699Z,59.10
2019-05-26T05:25:43.337Z,58.90
2019-05-26T05:28:12.713Z,58.80
2019-05-26T05:30:42.104Z,58.50
2019-05-26T05:33:11.474Z,58.10
2019-05-26T05:35:40.868Z,57.80
2019-05-26T05:38:10.266Z,57.40
2019-05-26T05:40:39.642Z,57.00
2019-05-26T05:43:09.013Z,56.60
2019-05-26T05:45:39.282Z,56.20
2019-05-26T05:48:08.653Z,55.70
2019-05-26T05:50:39.252Z,55.30
2019-05-26T05:53:08.899Z,54.80
2019-05-26T05:55:38.262Z,54.50
2019-05-26T05:58:07.625Z,54.40
2019-05-26T06:00:37.037Z,54.00
2019-05-26T06:03:06.398Z,53.60
2019-05-26T06:05:35.777Z,53.50
2019-05-26T06:08:05.249Z,53.40
2019-05-26T06:10:34.626Z,53.40
2019-05-26T06:13:04.058Z,53.10
2019-05-26T06:15:33.513Z,53.10
2019-05-26T06:18:02.882Z,52.90
2019-05-26T06:20:32.266Z,52.90
2019-05-26T06:23:01.667Z,52.60
2019-05-26T06:25:31.107Z,52.50
2019-05-26T06:28:00.704Z,52.30
2019-05-26T06:30:30.491Z,52.20
2019-05-26T06:32:59.853Z,52.10
2019-05-26T06:35:32.488Z,52.10
2019-05-26T06:38:00.321Z,52.10
2019-05-26T06:40:29.696Z,51.90
2019-05-26T06:42:59.071Z,51.80
2019-05-26T06:45:29.143Z,51.50
2019-05-26T06:47:58.872Z,51.50
2019-05-26T06:50:28.239Z,51.10
2019-05-26T06:52:57.624Z,50.70
2019-05-26T06:55:27.077Z,51.00
2019-05-26T06:57:56.408Z,50.60
2019-05-26T07:00:25.865Z,50.40
2019-05-26T07:02:55.248Z,50.50
2019-05-26T07:05:24.619Z,50.40
2019-05-26T07:07:54.695Z,50.00
2019-05-26T07:10:24.073Z,50.00
2019-05-26T07:12:53.531Z,50.00
2019-05-26T07:15:22.985Z,50.00
2019-05-26T07:17:52.351Z,49.60
2019-05-26T07:20:21.861Z,49.50
2019-05-26T07:22:51.314Z,49.30
2019-05-26T07:25:20.739Z,49.20
2019-05-26T07:27:50.108Z,48.90
2019-05-26T07:30:23.346Z,48.80
2019-05-26T07:32:50.821Z,48.60
2019-05-26T07:35:20.206Z,48.30
2019-05-26T07:37:49.605Z,48.40
2019-05-26T07:40:19.253Z,47.90
2019-05-26T07:42:48.629Z,47.70
2019-05-26T07:45:18.286Z,47.10
2019-05-26T07:47:47.742Z,47.10
2019-05-26T07:50:18.497Z,46.90
2019-05-26T07:52:47.891Z,47.10
2019-05-26T07:55:17.353Z,46.50
2019-05-26T07:57:47.485Z,46.80
2019-05-26T08:00:17.166Z,46.40
2019-05-26T08:02:46.557Z,46.50
2019-05-26T08:05:16.442Z,46.40
2019-05-26T08:07:45.991Z,45.80
2019-05-26T08:10:17.433Z,45.20
2019-05-26T08:12:46.883Z,45.10
2019-05-26T08:15:19.638Z,45.20
2019-05-26T08:17:49.096Z,45.20
2019-05-26T08:20:20.439Z,45.40
2019-05-26T08:22:49.829Z,45.50
2019-05-26T08:25:19.551Z,45.20
2019-05-26T08:27:48.922Z,45.00
2019-05-26T08:30:18.937Z,45.50
2019-05-26T08:32:48.306Z,45.40
2019-05-26T08:35:17.766Z,45.00
2019-05-26T08:37:47.675Z,44.90
2019-05-26T08:40:19.805Z,44.80
2019-05-26T08:42:51.633Z,44.60
2019-05-26T08:45:23.021Z,44.70
2019-05-26T08:47:52.946Z,44.40
2019-05-26T08:50:23.057Z,44.10
2019-05-26T08:52:53.742Z,44.10
2019-05-26T08:55:23.235Z,44.30
2019-05-26T08:57:52.645Z,44.20
2019-05-26T09:00:23.318Z,44.20
2019-05-26T09:02:53.025Z,44.00
2019-05-26T09:05:22.638Z,43.80
2019-05-26T09:07:52.089Z,43.50
2019-05-26T09:10:21.500Z,43.00
2019-05-26T09:13:00.134Z,43.90
2019-05-26T09:15:23.177Z,43.00
2019-05-26T09:17:52.578Z,43.10
2019-05-26T09:20:23.439Z,43.00
2019-05-26T09:22:52.859Z,42.70
2019-05-26T09:25:22.319Z,42.60
2019-05-26T09:27:51.795Z,42.70
2019-05-26T09:30:21.332Z,42.40
2019-05-26T09:32:50.747Z,42.40
2019-05-26T09:35:20.126Z,41.80
2019-05-26T09:37:49.893Z,41.90
2019-05-26T09:40:20.452Z,41.20
2019-05-26T09:42:49.784Z,41.50
2019-05-26T09:45:19.606Z,41.10
2019-05-26T09:47:49.381Z,40.90
2019-05-26T09:50:19.244Z,40.90
2019-05-26T09:52:48.632Z,40.80
2019-05-26T09:55:18.688Z,40.70
2019-05-26T09:57:48.221Z,40.80
2019-05-26T10:00:19.318Z,40.60
2019-05-26T10:02:48.787Z,40.40
2019-05-26T10:05:19.138Z,40.10
2019-05-26T10:07:48.518Z,39.90
2019-05-26T10:10:18.243Z,39.80
2019-05-26T10:12:47.673Z,39.50
2019-05-26T10:15:18.602Z,39.70
2019-05-26T10:17:47.981Z,39.60
2019-05-26T10:20:18.081Z,39.70
2019-05-26T10:22:47.833Z,39.50
2019-05-26T10:25:17.311Z,39.90
2019-05-26T10:27:46.681Z,39.70
2019-05-26T10:30:18.139Z,39.50
2019-05-26T10:32:47.565Z,39.20
2019-05-26T10:35:16.980Z,38.80
2019-05-26T10:37:46.375Z,39.30
2019-05-26T10:40:16.992Z,39.40
2019-05-26T10:42:46.560Z,39.30
2019-05-26T10:45:17.894Z,38.90
2019-05-26T10:47:47.327Z,38.70
2019-05-26T10:50:17.271Z,38.80
2019-05-26T10:52:46.696Z,38.80
2019-05-26T10:55:16.594Z,38.80
2019-05-26T10:57:47.000Z,38.70
2019-05-26T11:00:17.796Z,38.30
2019-05-26T11:02:47.166Z,38.40
2019-05-26T11:05:16.971Z,38.50
2019-05-26T11:07:47.550Z,38.40
2019-05-26T11:10:19.286Z,38.40
2019-05-26T11:12:48.712Z,38.30
2019-05-26T11:15:18.910Z,38.20
2019-05-26T11:17:48.343Z,38.20
2019-05-26T11:20:17.802Z,38.20
2019-05-26T11:22:47.205Z,37.70
2019-05-26T11:25:17.293Z,37.50
2019-05-26T11:27:46.672Z,37.40
2019-05-26T11:30:17.644Z,37.60
2019-05-26T11:32:47.055Z,37.70
2019-05-26T11:35:16.762Z,37.70
2019-05-26T11:37:46.212Z,37.50
2019-05-26T11:40:16.275Z,37.80
2019-05-26T11:42:45.571Z,38.00
2019-05-26T11:45:17.398Z,37.70
2019-05-26T11:47:46.722Z,37.60
2019-05-26T11:50:17.712Z,37.60
2019-05-26T11:52:47.113Z,37.50
2019-05-26T11:55:17.366Z,37.60
2019-05-26T11:57:46.689Z,37.40
2019-05-26T12:00:17.340Z,36.40
2019-05-26T12:02:47.387Z,36.80
2019-05-26T12:05:18.061Z,36.10
2019-05-26T12:07:47.549Z,36.70
2019-05-26T12:10:17.758Z,36.60
2019-05-26T12:12:47.144Z,36.70
2019-05-26T12:15:18.200Z,36.60
2019-05-26T12:17:47.561Z,36.70
2019-05-26T12:20:17.857Z,36.80
2019-05-26T12:22:47.271Z,36.60
2019-05-26T12:25:17.185Z,36.20
2019-05-26T12:27:46.566Z,36.40
2019-05-26T12:30:17.077Z,36.00
2019-05-26T12:32:46.443Z,36.00
2019-05-26T12:35:18.724Z,35.80
2019-05-26T12:37:48.686Z,36.00
2019-05-26T12:40:18.251Z,35.80
2019-05-26T12:42:47.678Z,35.40
2019-05-26T12:45:17.928Z,35.20
2019-05-26T12:47:47.329Z,35.10
2019-05-26T12:50:17.058Z,34.60
2019-05-26T12:52:46.458Z,34.70
2019-05-26T12:55:17.558Z,34.80
2019-05-26T12:57:46.960Z,34.70
2019-05-26T13:00:17.079Z,34.50
2019-05-26T13:02:47.095Z,34.90
2019-05-26T13:05:19.715Z,34.70
2019-05-26T13:07:49.501Z,35.20
2019-05-26T13:10:19.485Z,35.50
2019-05-26T13:12:48.850Z,35.20
2019-05-26T13:15:21.199Z,34.40
2019-05-26T13:17:50.579Z,34.80
2019-05-26T13:20:22.648Z,34.50
2019-05-26T13:22:52.028Z,34.60
2019-05-26T13:25:23.007Z,34.70
2019-05-26T13:27:52.373Z,34.80
2019-05-26T13:30:26.494Z,34.80
2019-05-26T13:32:55.867Z,34.70
2019-05-26T13:35:25.386Z,34.70
2019-05-26T13:37:54.836Z,34.20
2019-05-26T13:40:24.209Z,34.60
2019-05-26T13:42:53.857Z,34.20
2019-05-26T13:45:23.734Z,34.60
2019-05-26T13:47:53.623Z,34.60
2019-05-26T13:50:24.704Z,34.80
2019-05-26T13:52:54.129Z,34.70
2019-05-26T13:55:23.509Z,34.40
2019-05-26T13:57:52.949Z,34.00
2019-05-26T14:00:24.267Z,34.10
2019-05-26T14:02:53.983Z,34.10
2019-05-26T14:05:23.701Z,34.00
2019-05-26T14:07:53.096Z,34.00
2019-05-26T14:10:35.132Z,34.10
2019-05-26T14:13:07.065Z,33.40
2019-05-26T14:15:38.464Z,33.00
2019-05-26T14:18:08.921Z,33.10
2019-05-26T14:20:41.502Z,33.40
2019-05-26T14:23:11.794Z,33.60
2019-05-26T14:25:41.189Z,33.50
2019-05-26T14:28:10.749Z,33.20
2019-05-26T14:30:40.151Z,32.90
2019-05-26T14:33:09.608Z,32.70
2019-05-26T14:35:38.977Z,32.70
2019-05-26T14:38:08.361Z,32.90
2019-05-26T14:40:37.741Z,32.80
2019-05-26T14:43:07.127Z,33.10
2019-05-26T14:45:51.964Z,33.30
2019-05-26T14:48:08.190Z,33.30
2019-05-26T14:50:40.675Z,33.40
2019-05-26T14:53:09.542Z,33.50
2019-05-26T14:55:39.001Z,33.60
2019-05-26T14:58:15.889Z,33.60
2019-05-26T15:00:39.496Z,33.40
2019-05-26T15:03:08.868Z,33.60
2019-05-26T15:05:38.255Z,33.70
2019-05-26T15:08:08.310Z,33.70
2019-05-26T15:10:37.687Z,33.80
2019-05-26T15:13:07.277Z,34.20
2019-05-26T15:15:36.648Z,34.20
2019-05-26T15:18:06.034Z,34.40
2019-05-26T15:20:35.419Z,34.40
2019-05-26T15:23:04.784Z,34.80
2019-05-26T15:25:34.214Z,35.00
2019-05-26T15:28:03.908Z,34.70
2019-05-26T15:30:33.395Z,34.70
2019-05-26T15:33:02.730Z,34.70
2019-05-26T15:35:32.648Z,35.10
2019-05-26T15:38:02.029Z,35.20
2019-05-26T15:40:31.472Z,35.40
2019-05-26T15:43:00.833Z,35.30
2019-05-26T15:45:30.219Z,35.50
2019-05-26T15:47:59.581Z,35.60
2019-05-26T15:50:28.966Z,35.80
2019-05-26T15:52:58.369Z,35.90
2019-05-26T15:55:28.020Z,36.10
2019-05-26T15:57:57.894Z,36.20
2019-05-26T16:00:27.436Z,36.50
2019-05-26T16:02:56.852Z,36.70
2019-05-26T16:05:26.205Z,36.70
2019-05-26T16:07:55.595Z,36.70
2019-05-26T16:10:25.413Z,37.00
2019-05-26T16:12:54.796Z,37.10
2019-05-26T16:15:24.249Z,37.00
2019-05-26T16:17:53.600Z,37.10
2019-05-26T16:20:23.008Z,37.20
2019-05-26T16:22:52.379Z,37.10
2019-05-26T16:25:21.758Z,37.20
2019-05-26T16:27:51.140Z,37.30
2019-05-26T16:30:20.640Z,37.40
2019-05-26T16:32:50.033Z,37.40
2019-05-26T16:35:19.427Z,37.40
2019-05-26T16:37:48.832Z,37.30
2019-05-26T16:40:18.438Z,37.40
2019-05-26T16:42:48.015Z,37.50
2019-05-26T16:45:17.492Z,37.50
2019-05-26T16:47:46.864Z,37.40
2019-05-26T16:50:16.269Z,37.20
2019-05-26T16:52:45.644Z,37.30
2019-05-26T16:55:15.144Z,37.30
2019-05-26T16:57:44.521Z,37.30
2019-05-26T17:00:14.521Z,37.30
2019-05-26T17:02:43.973Z,37.20
2019-05-26T17:05:13.901Z,37.10
2019-05-26T17:07:43.275Z,37.20
2019-05-26T17:10:12.779Z,37.20
2019-05-26T17:12:42.551Z,37.30
2019-05-26T17:15:12.781Z,37.30
2019-05-26T17:17:42.152Z,37.10
2019-05-26T17:20:12.658Z,37.20
2019-05-26T17:22:42.043Z,37.10
2019-05-26T17:25:11.912Z,37.00
2019-05-26T17:27:41.586Z,37.00
2019-05-26T17:30:12.083Z,37.00
2019-05-26T17:32:41.411Z,37.10
2019-05-26T17:35:11.297Z,37.50
2019-05-26T17:37:40.670Z,37.40
2019-05-26T17:40:10.374Z,37.10
2019-05-26T17:42:39.759Z,37.10
2019-05-26T17:45:10.406Z,37.10
2019-05-26T17:47:39.786Z,37.10
2019-05-26T17:50:10.891Z,37.30
2019-05-26T17:52:40.273Z,37.50
2019-05-26T17:55:10.680Z,37.50
2019-05-26T17:57:40.053Z,37.60
2019-05-26T18:00:11.942Z,37.60
2019-05-26T18:02:41.338Z,37.90
2019-05-26T18:05:11.568Z,38.00
2019-05-26T18:07:40.969Z,37.80
2019-05-26T18:10:11.859Z,37.90
2019-05-26T18:12:41.263Z,37.90
2019-05-26T18:15:11.377Z,38.10
2019-05-26T18:17:47.086Z,38.20
2019-05-26T18:20:13.158Z,38.20
2019-05-26T18:22:42.577Z,38.30
2019-05-26T18:25:12.185Z,38.40
2019-05-26T18:27:41.594Z,38.50
2019-05-26T18:30:11.948Z,38.50
2019-05-26T18:32:41.355Z,38.60
2019-05-26T18:35:11.836Z,38.70
2019-05-26T18:37:41.295Z,38.90
2019-05-26T18:40:11.890Z,38.90
2019-05-26T18:42:41.282Z,39.00
2019-05-26T18:45:11.593Z,39.30
2019-05-26T18:47:40.989Z,39.20
2019-05-26T18:50:10.592Z,39.30
2019-05-26T18:52:40.030Z,39.50
2019-05-26T18:55:10.337Z,39.60
2019-05-26T18:57:39.745Z,39.70
2019-05-26T19:00:12.073Z,39.70
2019-05-26T19:02:41.486Z,39.70
2019-05-26T19:05:10.914Z,39.70
2019-05-26T19:07:40.530Z,39.80
2019-05-26T19:10:12.494Z,39.80
2019-05-26T19:12:41.947Z,40.00
2019-05-26T19:15:12.060Z,40.20
2019-05-26T19:17:42.485Z,40.20
2019-05-26T19:20:16.644Z,40.10
2019-05-26T19:22:44.572Z,40.20
2019-05-26T19:25:14.215Z,40.30
2019-05-26T19:27:43.806Z,41.10
2019-05-26T19:30:13.998Z,40.70
2019-05-26T19:32:43.380Z,40.70
2019-05-26T19:35:13.969Z,40.80
2019-05-26T19:37:43.343Z,40.80
2019-05-26T19:40:13.733Z,41.00
2019-05-26T19:42:43.196Z,41.10
2019-05-26T19:45:13.220Z,41.10
2019-05-26T19:47:42.625Z,41.20
2019-05-26T19:50:12.735Z,41.30
2019-05-26T19:52:42.107Z,41.50
2019-05-26T19:55:12.693Z,41.50
2019-05-26T19:57:42.093Z,41.60
2019-05-26T20:00:16.921Z,41.80
2019-05-26T20:02:46.390Z,41.80
2019-05-26T20:05:16.440Z,41.80
2019-05-26T20:07:45.807Z,41.80
2019-05-26T20:10:17.086Z,42.00
2019-05-26T20:12:46.484Z,41.90
2019-05-26T20:15:16.767Z,42.00
2019-05-26T20:17:46.148Z,42.10
2019-05-26T20:20:16.309Z,42.20
2019-05-26T20:22:45.683Z,42.20
2019-05-26T20:25:15.959Z,42.10
2019-05-26T20:27:45.556Z,42.20
2019-05-26T20:30:15.715Z,42.20
2019-05-26T20:32:45.134Z,42.30
2019-05-26T20:35:15.809Z,42.40
2019-05-26T20:37:45.181Z,42.50
2019-05-26T20:40:15.373Z,42.40
2019-05-26T20:42:45.020Z,42.60
2019-05-26T20:45:15.629Z,42.60
2019-05-26T20:47:45.001Z,42.70
2019-05-26T20:50:28.783Z,43.00
2019-05-26T20:52:48.365Z,42.80
2019-05-26T20:55:18.370Z,43.00
2019-05-26T20:57:48.252Z,43.00
2019-05-26T21:00:19.379Z,43.20
2019-05-26T21:02:48.755Z,43.10
2019-05-26T21:05:19.618Z,43.10
2019-05-26T21:07:48.992Z,43.20
2019-05-26T21:10:18.504Z,43.30
2019-05-26T21:12:47.873Z,43.30
2019-05-26T21:15:17.394Z,43.30
2019-05-26T21:17:46.780Z,43.50
2019-05-26T21:20:16.413Z,43.50
2019-05-26T21:22:45.912Z,43.60
2019-05-26T21:25:15.751Z,43.60
2019-05-26T21:27:45.481Z,43.60
2019-05-26T21:30:15.495Z,43.60
2019-05-26T21:32:44.998Z,43.80
2019-05-26T21:35:14.520Z,43.80
2019-05-26T21:37:43.900Z,43.80
2019-05-26T21:40:14.485Z,43.70
2019-05-26T21:42:43.907Z,43.80
2019-05-26T21:45:14.008Z,43.90
2019-05-26T21:47:43.383Z,43.90
2019-05-26T21:50:13.717Z,44.00
2019-05-26T21:52:43.146Z,44.10
2019-05-26T21:55:13.889Z,44.40
2019-05-26T21:57:43.258Z,44.20
2019-05-26T22:00:15.600Z,44.20
2019-05-26T22:02:45.008Z,44.30
2019-05-26T22:05:15.108Z,44.40
2019-05-26T22:07:44.482Z,44.40
2019-05-26T22:10:14.026Z,44.50
2019-05-26T22:12:43.422Z,44.40
2019-05-26T22:15:13.417Z,44.50
2019-05-26T22:17:42.785Z,44.60
2019-05-26T22:20:12.602Z,44.70
2019-05-26T22:22:41.994Z,44.70
2019-05-26T22:25:11.932Z,44.80
2019-05-26T22:27:41.630Z,44.80
2019-05-26T22:30:11.919Z,45.00
2019-05-26T22:32:41.731Z,45.10
2019-05-26T22:35:11.534Z,45.00
2019-05-26T22:37:41.216Z,45.00
2019-05-26T22:40:11.299Z,45.10
2019-05-26T22:42:40.852Z,45.20
2019-05-26T22:45:10.928Z,45.30
2019-05-26T22:47:40.381Z,45.20
2019-05-26T22:50:10.995Z,45.60
2019-05-26T22:52:40.338Z,45.20
2019-05-26T22:55:10.045Z,45.20
2019-05-26T22:57:39.429Z,45.30
2019-05-26T23:00:11.095Z,45.20
2019-05-26T23:02:40.598Z,45.30
2019-05-26T23:05:10.322Z,45.40
2019-05-26T23:07:39.509Z,45.40
2019-05-26T23:10:11.224Z,45.30
2019-05-26T23:12:40.770Z,45.40
2019-05-26T23:15:11.269Z,45.30
2019-05-26T23:17:40.625Z,45.40
2019-05-26T23:20:10.647Z,45.30
2019-05-26T23:25:16.465Z,45.30
2019-05-26T23:27:47.925Z,45.40
2019-05-26T23:30:17.470Z,45.50
2019-05-26T23:32:46.874Z,45.40
2019-05-26T23:35:16.686Z,45.50
2019-05-26T23:37:46.124Z,45.40
2019-05-26T23:40:16.094Z,45.50
2019-05-26T23:42:45.461Z,45.50
2019-05-26T23:45:15.004Z,45.40
2019-05-26T23:47:45.113Z,45.60
2019-05-26T23:50:14.702Z,45.60
2019-05-26T23:52:44.066Z,45.70
2019-05-26T23:55:13.706Z,45.70
2019-05-26T23:57:43.117Z,45.80
